createdAt,value
2023-04-09T00:00:25.369Z,5.94
2023-04-09T00:01:20.596Z,5.94
2023-04-09T00:02:15.848Z,5.94
2023-04-09T00:03:11.109Z,5.95
2023-04-09T00:04:06.460Z,5.97
2023-04-09T00:05:01.614Z,5.98
2023-04-09T00:05:56.704Z,5.98
2023-04-09T00:06:51.934Z,5.99
2023-04-09T00:07:47.148Z,6.00
2023-04-09T00:08:42.535Z,5.99
2023-04-09T00:09:37.671Z,5.98
2023-04-09T00:10:32.893Z,5.99
2023-04-09T00:11:28.286Z,5.98
2023-04-09T00:12:23.401Z,6.01
2023-04-09T00:13:28.304Z,6.04
2023-04-09T00:14:14.817Z,6.05
2023-04-09T00:15:13.021Z,6.04
2023-04-09T00:16:04.837Z,6.01
2023-04-09T00:16:58.879Z,6.00
2023-04-09T00:17:55.346Z,5.95
2023-04-09T00:18:50.889Z,5.91
2023-04-09T00:19:45.458Z,5.91
2023-04-09T00:20:40.560Z,5.90
2023-04-09T00:21:35.641Z,5.90
2023-04-09T00:22:30.790Z,5.91
2023-04-09T00:23:25.749Z,5.90
2023-04-09T00:24:21.053Z,5.89
2023-04-09T00:25:15.876Z,5.89
2023-04-09T00:26:10.958Z,5.89
2023-04-09T00:27:05.920Z,5.88
2023-04-09T00:28:01.066Z,5.86
2023-04-09T00:28:56.288Z,5.85
2023-04-09T00:29:51.284Z,5.87
2023-04-09T00:30:46.509Z,5.89
2023-04-09T00:31:41.812Z,5.89
2023-04-09T00:32:37.581Z,5.89
2023-04-09T00:33:32.997Z,5.93
2023-04-09T00:34:27.970Z,5.96
2023-04-09T00:35:24.482Z,5.99
2023-04-09T00:36:19.711Z,6.00
2023-04-09T00:37:15.529Z,6.03
2023-04-09T00:38:10.748Z,6.08
2023-04-09T00:39:05.932Z,6.15
2023-04-09T00:40:01.685Z,6.19
2023-04-09T00:40:56.956Z,6.21
2023-04-09T00:41:52.741Z,6.21
2023-04-09T00:42:48.007Z,6.20
2023-04-09T00:43:43.408Z,6.20
2023-04-09T00:44:39.066Z,6.19
2023-04-09T00:45:34.341Z,6.19
2023-04-09T00:46:29.592Z,6.15
2023-04-09T00:47:25.962Z,6.11
2023-04-09T00:48:21.209Z,6.07
2023-04-09T00:49:16.971Z,6.05
2023-04-09T00:50:12.233Z,6.02
2023-04-09T00:51:07.454Z,6.00
2023-04-09T00:52:03.290Z,6.00
2023-04-09T00:52:58.701Z,6.00
2023-04-09T00:53:54.497Z,6.00
2023-04-09T00:54:49.581Z,5.98
2023-04-09T00:55:44.979Z,5.97
2023-04-09T00:56:40.783Z,5.96
2023-04-09T00:57:36.057Z,6.01
2023-04-09T00:58:31.548Z,6.07
2023-04-09T00:59:27.527Z,6.10
2023-04-09T01:00:22.878Z,6.13
2023-04-09T01:01:18.603Z,6.14
2023-04-09T01:02:13.702Z,6.16
2023-04-09T01:03:09.142Z,6.18
2023-04-09T01:04:04.961Z,6.21
2023-04-09T01:05:00.147Z,6.22
2023-04-09T01:05:55.960Z,6.25
2023-04-09T01:06:51.324Z,6.26
2023-04-09T01:07:46.567Z,6.24
2023-04-09T01:08:42.406Z,6.19
2023-04-09T01:09:37.494Z,6.18
2023-04-09T01:10:32.766Z,6.20
2023-04-09T01:11:28.949Z,6.20
2023-04-09T01:12:24.228Z,6.18
2023-04-09T01:13:20.014Z,6.16
2023-04-09T01:14:15.415Z,6.15
2023-04-09T01:15:10.415Z,6.16
2023-04-09T01:16:06.250Z,6.14
2023-04-09T01:17:01.441Z,6.12
2023-04-09T01:17:57.305Z,6.10
2023-04-09T01:18:52.884Z,6.06
2023-04-09T01:19:47.763Z,6.03
2023-04-09T01:20:43.515Z,6.02
2023-04-09T01:21:38.793Z,6.02
2023-04-09T01:22:34.001Z,5.98
2023-04-09T01:23:30.369Z,5.96
2023-04-09T01:24:25.770Z,5.94
2023-04-09T01:25:21.477Z,5.91
2023-04-09T01:26:16.668Z,5.89
2023-04-09T01:27:11.943Z,5.91
2023-04-09T01:28:07.740Z,5.94
2023-04-09T01:29:03.188Z,5.95
2023-04-09T01:29:58.946Z,5.97
2023-04-09T01:30:54.111Z,5.95
2023-04-09T01:31:49.371Z,5.93
2023-04-09T01:32:44.660Z,5.92
2023-04-09T01:33:40.005Z,5.91
2023-04-09T01:34:36.342Z,5.88
2023-04-09T01:35:31.629Z,5.88
2023-04-09T01:36:27.407Z,5.90
2023-04-09T01:37:22.615Z,5.90
2023-04-09T01:38:17.887Z,5.89
2023-04-09T01:39:13.837Z,5.88
2023-04-09T01:40:08.994Z,5.92
2023-04-09T01:41:04.226Z,5.95
2023-04-09T01:42:00.617Z,5.94
2023-04-09T01:42:55.835Z,5.94
2023-04-09T01:43:51.667Z,5.95
2023-04-09T01:44:46.782Z,5.94
2023-04-09T01:45:42.041Z,5.92
2023-04-09T01:46:37.857Z,5.91
2023-04-09T01:47:33.143Z,5.94
2023-04-09T01:48:29.054Z,5.98
2023-04-09T01:49:24.349Z,5.99
2023-04-09T01:50:19.280Z,6.00
2023-04-09T01:51:14.537Z,6.00
2023-04-09T01:52:09.763Z,5.98
2023-04-09T01:53:05.305Z,5.98
2023-04-09T01:54:00.600Z,5.95
2023-04-09T01:54:55.713Z,5.92
2023-04-09T01:55:51.005Z,5.92
2023-04-09T01:56:47.317Z,5.91
2023-04-09T01:57:42.543Z,5.94
2023-04-09T01:58:37.688Z,5.95
2023-04-09T01:59:37.305Z,5.97
2023-04-09T02:00:32.395Z,5.97
2023-04-09T02:01:27.667Z,5.99
2023-04-09T02:02:23.069Z,5.98
2023-04-09T02:03:18.049Z,6.01
2023-04-09T02:04:13.116Z,6.00
2023-04-09T02:05:08.128Z,6.00
2023-04-09T02:06:03.215Z,6.00
2023-04-09T02:06:58.232Z,6.00
2023-04-09T02:07:53.287Z,6.00
2023-04-09T02:08:48.426Z,5.98
2023-04-09T02:09:43.559Z,5.98
2023-04-09T02:10:38.535Z,5.94
2023-04-09T02:11:33.525Z,5.91
2023-04-09T02:12:28.736Z,5.89
2023-04-09T02:13:23.944Z,5.91
2023-04-09T02:14:19.060Z,5.92
2023-04-09T02:15:14.210Z,5.88
2023-04-09T02:16:09.221Z,5.88
2023-04-09T02:17:04.150Z,5.87
2023-04-09T02:17:59.318Z,5.85
2023-04-09T02:18:54.493Z,5.82
2023-04-09T02:19:49.367Z,5.82
2023-04-09T02:20:44.309Z,5.81
2023-04-09T02:21:39.338Z,5.77
2023-04-09T02:22:34.330Z,5.75
2023-04-09T02:23:30.815Z,5.74
2023-04-09T02:24:25.772Z,5.72
2023-04-09T02:25:20.960Z,5.72
2023-04-09T02:26:15.803Z,5.72
2023-04-09T02:27:10.946Z,5.72
2023-04-09T02:28:05.911Z,5.71
2023-04-09T02:29:01.049Z,5.68
2023-04-09T02:29:56.041Z,5.66
2023-04-09T02:30:51.096Z,5.69
2023-04-09T02:31:46.033Z,5.72
2023-04-09T02:32:41.115Z,5.75
2023-04-09T02:33:36.191Z,5.77
2023-04-09T02:34:32.207Z,5.77
2023-04-09T02:35:27.147Z,5.79
2023-04-09T02:36:22.531Z,5.79
2023-04-09T02:37:18.202Z,5.79
2023-04-09T02:38:13.486Z,5.79
2023-04-09T02:39:09.279Z,5.79
2023-04-09T02:40:04.679Z,5.78
2023-04-09T02:40:59.935Z,5.77
2023-04-09T02:41:55.629Z,5.75
2023-04-09T02:42:50.862Z,5.75
2023-04-09T02:43:46.134Z,5.74
2023-04-09T02:44:42.489Z,5.74
2023-04-09T02:45:37.681Z,5.75
2023-04-09T02:46:33.573Z,5.79
2023-04-09T02:47:28.694Z,5.84
2023-04-09T02:48:23.771Z,5.85
2023-04-09T02:49:19.788Z,5.84
2023-04-09T02:50:14.790Z,5.84
2023-04-09T02:51:10.585Z,5.85
2023-04-09T02:52:05.776Z,5.84
2023-04-09T02:53:01.080Z,5.85
2023-04-09T02:53:57.030Z,5.88
2023-04-09T02:54:52.173Z,5.92
2023-04-09T02:55:47.362Z,5.91
2023-04-09T02:56:43.730Z,5.90
2023-04-09T02:57:38.956Z,5.89
2023-04-09T02:58:34.770Z,5.88
2023-04-09T02:59:30.176Z,5.88
2023-04-09T03:00:25.311Z,5.85
2023-04-09T03:01:21.163Z,5.84
2023-04-09T03:02:16.479Z,5.85
2023-04-09T03:03:12.486Z,5.88
2023-04-09T03:04:07.672Z,5.89
2023-04-09T03:05:02.663Z,5.91
2023-04-09T03:05:58.510Z,5.93
2023-04-09T03:06:53.748Z,5.94
2023-04-09T03:07:49.115Z,5.93
2023-04-09T03:08:45.241Z,5.95
2023-04-09T03:09:40.658Z,5.97
2023-04-09T03:10:36.320Z,5.98
2023-04-09T03:11:31.561Z,5.99
2023-04-09T03:12:26.917Z,5.98
2023-04-09T03:13:22.624Z,5.99
2023-04-09T03:14:17.896Z,5.99
2023-04-09T03:15:13.726Z,5.99
2023-04-09T03:16:08.949Z,5.98
2023-04-09T03:17:04.348Z,5.98
2023-04-09T03:18:00.062Z,6.00
2023-04-09T03:18:55.315Z,6.01
2023-04-09T03:19:50.399Z,6.01
2023-04-09T03:20:46.880Z,5.99
2023-04-09T03:21:42.132Z,5.97
2023-04-09T03:22:37.365Z,5.95
2023-04-09T03:23:32.591Z,5.92
2023-04-09T03:24:28.614Z,5.87
2023-04-09T03:25:23.602Z,5.86
2023-04-09T03:26:19.419Z,5.88
2023-04-09T03:27:14.598Z,5.91
2023-04-09T03:28:09.987Z,5.94
2023-04-09T03:29:05.852Z,5.96
2023-04-09T03:30:00.956Z,6.00
2023-04-09T03:30:56.094Z,6.04
2023-04-09T03:31:52.547Z,6.06
2023-04-09T03:32:47.840Z,6.09
2023-04-09T03:33:43.805Z,6.11
2023-04-09T03:34:38.721Z,6.12
2023-04-09T03:35:34.058Z,6.15
2023-04-09T03:36:29.812Z,6.17
2023-04-09T03:37:25.111Z,6.18
2023-04-09T03:38:20.904Z,6.19
2023-04-09T03:39:16.303Z,6.19
2023-04-09T03:40:11.250Z,6.22
2023-04-09T03:41:06.500Z,6.25
2023-04-09T03:42:01.971Z,6.26
2023-04-09T03:42:57.028Z,6.27
2023-04-09T03:43:52.416Z,6.23
2023-04-09T03:44:48.120Z,6.19
2023-04-09T03:45:43.334Z,6.16
2023-04-09T03:46:38.816Z,6.12
2023-04-09T03:47:34.345Z,6.11
2023-04-09T03:48:29.754Z,6.12
2023-04-09T03:49:24.756Z,6.15
2023-04-09T03:50:19.999Z,6.18
2023-04-09T03:51:14.952Z,6.21
2023-04-09T03:52:10.094Z,6.20
2023-04-09T03:53:05.074Z,6.19
2023-04-09T03:54:00.351Z,6.19
2023-04-09T03:54:55.332Z,6.19
2023-04-09T03:55:50.602Z,6.18
2023-04-09T03:56:45.564Z,6.15
2023-04-09T03:57:40.678Z,6.14
2023-04-09T03:58:35.770Z,6.10
2023-04-09T03:59:30.763Z,6.07
2023-04-09T04:00:25.720Z,6.04
2023-04-09T04:01:20.831Z,6.02
2023-04-09T04:02:15.855Z,5.99
2023-04-09T04:03:11.161Z,6.01
2023-04-09T04:04:06.098Z,6.02
2023-04-09T04:05:01.033Z,6.03
2023-04-09T04:05:56.101Z,6.04
2023-04-09T04:06:55.119Z,6.05
2023-04-09T04:07:50.199Z,6.07
2023-04-09T04:08:45.434Z,6.09
2023-04-09T04:09:40.249Z,6.08
2023-04-09T04:10:35.517Z,6.04
2023-04-09T04:11:30.702Z,6.00
2023-04-09T04:12:25.806Z,5.98
2023-04-09T04:13:21.075Z,5.98
2023-04-09T04:14:15.971Z,5.98
2023-04-09T04:15:10.918Z,5.99
2023-04-09T04:16:06.050Z,6.00
2023-04-09T04:17:01.018Z,6.01
2023-04-09T04:17:56.163Z,6.00
2023-04-09T04:18:51.420Z,6.00
2023-04-09T04:19:46.163Z,6.01
2023-04-09T04:20:41.250Z,5.99
2023-04-09T04:21:40.591Z,6.00
2023-04-09T04:22:31.421Z,6.01
2023-04-09T04:23:29.156Z,6.01
2023-04-09T04:24:23.968Z,6.00
2023-04-09T04:25:19.132Z,6.00
2023-04-09T04:26:14.084Z,6.00
2023-04-09T04:27:09.159Z,5.99
2023-04-09T04:28:04.268Z,5.96
2023-04-09T04:28:59.254Z,5.95
2023-04-09T04:29:54.221Z,5.96
2023-04-09T04:30:49.293Z,5.94
2023-04-09T04:31:44.340Z,5.96
2023-04-09T04:32:39.412Z,5.98
2023-04-09T04:33:35.578Z,5.96
2023-04-09T04:34:30.713Z,6.03
2023-04-09T04:35:25.885Z,6.10
2023-04-09T04:36:21.198Z,6.13
2023-04-09T04:37:16.475Z,6.11
2023-04-09T04:38:11.979Z,6.08
2023-04-09T04:39:06.971Z,6.01
2023-04-09T04:40:02.326Z,5.96
2023-04-09T04:40:57.498Z,5.92
2023-04-09T04:41:52.870Z,5.89
2023-04-09T04:42:48.354Z,5.87
2023-04-09T04:43:43.481Z,5.85
2023-04-09T04:44:38.662Z,5.85
2023-04-09T04:45:34.060Z,5.82
2023-04-09T04:46:29.110Z,5.80
2023-04-09T04:47:24.243Z,5.81
2023-04-09T04:48:19.213Z,5.88
2023-04-09T04:49:14.338Z,5.92
2023-04-09T04:50:09.387Z,5.92
2023-04-09T04:51:04.416Z,5.95
2023-04-09T04:51:59.394Z,6.02
2023-04-09T04:52:54.445Z,6.03
2023-04-09T04:53:49.403Z,6.01
2023-04-09T04:54:44.540Z,5.96
2023-04-09T04:55:40.125Z,5.91
2023-04-09T04:56:35.132Z,5.87
2023-04-09T04:57:30.270Z,5.85
2023-04-09T04:58:25.362Z,5.83
2023-04-09T04:59:20.315Z,5.80
2023-04-09T05:00:15.410Z,5.82
2023-04-09T05:01:10.486Z,5.84
2023-04-09T05:02:05.707Z,5.85
2023-04-09T05:03:00.766Z,5.84
2023-04-09T05:03:55.970Z,5.86
2023-04-09T05:04:50.903Z,5.88
2023-04-09T05:05:47.120Z,5.92
2023-04-09T05:06:42.461Z,5.94
2023-04-09T05:07:37.785Z,5.93
2023-04-09T05:08:33.021Z,5.93
2023-04-09T05:09:28.449Z,5.93
2023-04-09T05:10:23.721Z,5.99
2023-04-09T05:11:19.304Z,6.02
2023-04-09T05:12:14.412Z,6.02
2023-04-09T05:13:09.843Z,5.98
2023-04-09T05:14:05.081Z,5.97
2023-04-09T05:15:00.685Z,5.97
2023-04-09T05:15:55.825Z,5.95
2023-04-09T05:16:51.492Z,5.95
2023-04-09T05:17:46.622Z,5.95
2023-04-09T05:18:41.891Z,5.90
2023-04-09T05:19:37.168Z,5.85
2023-04-09T05:20:32.455Z,5.82
2023-04-09T05:21:27.935Z,5.82
2023-04-09T05:22:23.234Z,5.73
2023-04-09T05:23:18.385Z,5.68
2023-04-09T05:24:13.850Z,5.66
2023-04-09T05:25:09.130Z,5.65
2023-04-09T05:26:04.560Z,5.58
2023-04-09T05:26:59.951Z,5.52
2023-04-09T05:27:57.390Z,5.47
2023-04-09T05:28:52.981Z,5.45
2023-04-09T05:29:48.006Z,5.49
2023-04-09T05:30:43.425Z,5.52
2023-04-09T05:31:39.163Z,5.54
2023-04-09T05:32:34.362Z,5.57
2023-04-09T05:33:29.680Z,5.59
2023-04-09T05:34:24.997Z,5.57
2023-04-09T05:35:20.051Z,5.55
2023-04-09T05:36:15.167Z,5.58
2023-04-09T05:37:10.560Z,5.64
2023-04-09T05:38:05.585Z,5.65
2023-04-09T05:39:00.687Z,5.63
2023-04-09T05:39:55.726Z,5.65
2023-04-09T05:40:50.846Z,5.66
2023-04-09T05:41:46.071Z,5.66
2023-04-09T05:42:41.049Z,5.61
2023-04-09T05:43:36.101Z,5.59
2023-04-09T05:44:31.157Z,5.57
2023-04-09T05:45:26.209Z,5.56
2023-04-09T05:46:21.348Z,5.58
2023-04-09T05:47:16.494Z,5.59
2023-04-09T05:48:13.477Z,5.59
2023-04-09T05:49:08.551Z,5.61
2023-04-09T05:50:03.615Z,5.67
2023-04-09T05:51:00.488Z,5.72
2023-04-09T05:51:53.886Z,5.73
2023-04-09T05:52:48.849Z,5.77
2023-04-09T05:53:43.963Z,5.82
2023-04-09T05:54:38.982Z,5.81
2023-04-09T05:55:34.048Z,5.73
2023-04-09T05:56:29.120Z,5.71
2023-04-09T05:57:24.298Z,5.65
2023-04-09T05:58:19.256Z,5.60
2023-04-09T05:59:14.300Z,5.59
2023-04-09T06:00:09.370Z,5.60
2023-04-09T06:01:04.417Z,5.62
2023-04-09T06:02:00.146Z,5.64
2023-04-09T06:02:55.300Z,5.68
2023-04-09T06:03:51.052Z,5.73
2023-04-09T06:04:46.193Z,5.79
2023-04-09T06:05:41.592Z,5.81
2023-04-09T06:06:37.120Z,5.83
2023-04-09T06:07:32.436Z,5.86
2023-04-09T06:08:27.780Z,5.88
2023-04-09T06:09:23.307Z,5.94
2023-04-09T06:10:18.707Z,5.98
2023-04-09T06:11:18.169Z,5.99
2023-04-09T06:12:13.583Z,6.01
2023-04-09T06:13:08.973Z,6.03
2023-04-09T06:14:04.354Z,6.06
2023-04-09T06:14:59.747Z,6.07
2023-04-09T06:15:55.273Z,6.12
2023-04-09T06:16:50.708Z,6.18
2023-04-09T06:17:45.951Z,6.27
2023-04-09T06:18:41.348Z,6.32
2023-04-09T06:19:36.702Z,6.35
2023-04-09T06:20:32.377Z,6.37
2023-04-09T06:21:27.968Z,6.38
2023-04-09T06:22:23.262Z,6.38
2023-04-09T06:23:18.606Z,6.37
2023-04-09T06:24:14.002Z,6.33
2023-04-09T06:25:09.088Z,6.28
2023-04-09T06:26:04.233Z,6.31
2023-04-09T06:26:59.367Z,6.38
2023-04-09T06:27:54.454Z,6.43
2023-04-09T06:28:49.405Z,6.44
2023-04-09T06:29:44.421Z,6.38
2023-04-09T06:30:39.500Z,6.29
2023-04-09T06:31:34.887Z,6.23
2023-04-09T06:32:35.508Z,6.17
2023-04-09T06:33:27.704Z,6.13
2023-04-09T06:34:22.578Z,6.02
2023-04-09T06:35:17.957Z,5.96
2023-04-09T06:36:14.119Z,5.90
2023-04-09T06:37:09.262Z,5.90
2023-04-09T06:38:04.607Z,5.87
2023-04-09T06:39:00.448Z,5.88
2023-04-09T06:40:00.904Z,5.89
2023-04-09T06:40:52.278Z,5.84
2023-04-09T06:41:46.731Z,5.83
2023-04-09T06:42:42.380Z,5.81
2023-04-09T06:43:37.667Z,5.83
2023-04-09T06:44:33.125Z,5.83
2023-04-09T06:45:29.317Z,5.81
2023-04-09T06:46:25.009Z,5.76
2023-04-09T06:47:20.494Z,5.77
2023-04-09T06:48:15.899Z,5.77
2023-04-09T06:49:11.244Z,5.78
2023-04-09T06:50:07.108Z,5.77
2023-04-09T06:51:02.520Z,5.74
2023-04-09T06:51:58.505Z,5.66
2023-04-09T06:52:53.695Z,5.56
2023-04-09T06:53:49.103Z,5.38
2023-04-09T06:54:44.725Z,5.30
2023-04-09T06:55:40.243Z,5.34
2023-04-09T06:56:35.842Z,5.38
2023-04-09T06:57:31.899Z,5.41
2023-04-09T06:58:27.309Z,5.44
2023-04-09T06:59:23.244Z,5.47
2023-04-09T07:00:18.622Z,5.55
2023-04-09T07:01:14.315Z,5.56
2023-04-09T07:02:09.955Z,5.59
2023-04-09T07:03:05.466Z,5.58
2023-04-09T07:04:01.274Z,5.58
2023-04-09T07:04:56.552Z,5.58
2023-04-09T07:05:51.903Z,5.56
2023-04-09T07:06:47.759Z,5.59
2023-04-09T07:07:43.119Z,5.61
2023-04-09T07:08:38.634Z,5.65
2023-04-09T07:09:34.908Z,5.72
2023-04-09T07:10:30.346Z,5.82
2023-04-09T07:11:26.339Z,5.89
2023-04-09T07:12:21.668Z,6.01
2023-04-09T07:13:17.049Z,6.08
2023-04-09T07:14:12.869Z,6.08
2023-04-09T07:15:08.212Z,6.08
2023-04-09T07:16:04.256Z,6.07
2023-04-09T07:16:59.475Z,6.03
2023-04-09T07:17:54.896Z,6.06
2023-04-09T07:18:50.696Z,6.08
2023-04-09T07:19:46.210Z,6.12
2023-04-09T07:20:41.604Z,6.11
2023-04-09T07:21:37.865Z,6.16
2023-04-09T07:22:33.271Z,6.16
2023-04-09T07:23:29.092Z,6.11
2023-04-09T07:24:24.465Z,6.10
2023-04-09T07:25:19.856Z,6.09
2023-04-09T07:26:15.813Z,6.07
2023-04-09T07:27:11.083Z,6.08
2023-04-09T07:28:06.870Z,6.04
2023-04-09T07:29:02.282Z,5.96
2023-04-09T07:29:57.851Z,5.92
2023-04-09T07:30:53.057Z,5.89
2023-04-09T07:31:48.444Z,5.84
2023-04-09T07:32:44.253Z,5.83
2023-04-09T07:33:39.629Z,5.77
2023-04-09T07:34:35.561Z,5.80
2023-04-09T07:35:30.796Z,5.82
2023-04-09T07:36:26.534Z,5.85
2023-04-09T07:37:22.204Z,5.89
2023-04-09T07:38:17.683Z,5.95
2023-04-09T07:39:13.067Z,5.92
2023-04-09T07:40:09.429Z,5.94
2023-04-09T07:41:04.948Z,5.99
2023-04-09T07:42:00.745Z,6.03
2023-04-09T07:42:56.113Z,5.96
2023-04-09T07:43:51.652Z,5.95
2023-04-09T07:44:47.368Z,6.03
2023-04-09T07:45:42.872Z,6.11
2023-04-09T07:46:38.480Z,6.09
2023-04-09T07:47:34.008Z,6.08
2023-04-09T07:48:29.213Z,6.05
2023-04-09T07:49:25.943Z,5.89
2023-04-09T07:50:21.022Z,5.85
2023-04-09T07:51:16.298Z,5.87
2023-04-09T07:52:11.484Z,5.82
2023-04-09T07:53:06.432Z,5.84
2023-04-09T07:54:01.413Z,5.83
2023-04-09T07:54:56.553Z,5.87
2023-04-09T07:55:51.681Z,5.85
2023-04-09T07:56:46.667Z,5.75
2023-04-09T07:57:41.721Z,5.73
2023-04-09T07:58:36.872Z,5.74
2023-04-09T07:59:31.883Z,5.75
2023-04-09T08:00:27.122Z,5.68
2023-04-09T08:01:21.997Z,5.66
2023-04-09T08:02:17.180Z,5.65
2023-04-09T08:03:12.348Z,5.67
2023-04-09T08:04:07.527Z,5.67
2023-04-09T08:05:02.404Z,5.66
2023-04-09T08:05:57.434Z,5.66
2023-04-09T08:06:52.372Z,5.62
2023-04-09T08:07:49.737Z,5.57
2023-04-09T08:08:44.795Z,5.57
2023-04-09T08:09:39.933Z,5.57
2023-04-09T08:10:35.109Z,5.59
2023-04-09T08:11:29.950Z,5.64
2023-04-09T08:12:24.912Z,5.67
2023-04-09T08:13:20.152Z,5.68
2023-04-09T08:14:15.129Z,5.70
2023-04-09T08:15:10.279Z,5.71
2023-04-09T08:16:05.532Z,5.69
2023-04-09T08:17:00.657Z,5.73
2023-04-09T08:17:56.051Z,5.78
2023-04-09T08:18:52.097Z,5.78
2023-04-09T08:19:47.332Z,5.76
2023-04-09T08:20:43.050Z,5.76
2023-04-09T08:21:38.569Z,5.76
2023-04-09T08:22:34.059Z,5.73
2023-04-09T08:23:29.824Z,5.70
2023-04-09T08:24:25.353Z,5.74
2023-04-09T08:25:20.734Z,5.82
2023-04-09T08:26:16.416Z,5.93
2023-04-09T08:27:11.774Z,6.06
2023-04-09T08:28:07.364Z,6.18
2023-04-09T08:29:03.497Z,6.35
2023-04-09T08:29:58.938Z,6.53
2023-04-09T08:30:54.791Z,6.77
2023-04-09T08:31:50.363Z,7.37
2023-04-09T08:32:45.961Z,7.88
2023-04-09T08:33:41.665Z,8.21
2023-04-09T08:34:37.086Z,8.34
2023-04-09T08:35:33.112Z,8.61
2023-04-09T08:36:28.304Z,8.74
2023-04-09T08:37:23.862Z,8.93
2023-04-09T08:38:19.678Z,8.85
2023-04-09T08:39:15.079Z,8.79
2023-04-09T08:40:10.599Z,8.66
2023-04-09T08:41:06.830Z,8.33
2023-04-09T08:42:02.257Z,7.97
2023-04-09T08:42:58.130Z,7.87
2023-04-09T08:44:49.427Z,8.11
2023-04-09T08:45:45.018Z,8.41
2023-04-09T08:46:40.563Z,8.57
2023-04-09T08:47:36.047Z,8.96
2023-04-09T08:48:31.546Z,9.15
2023-04-09T08:49:27.257Z,9.08
2023-04-09T08:50:23.103Z,9.01
2023-04-09T08:51:18.643Z,8.70
2023-04-09T08:52:14.104Z,8.36
2023-04-09T08:53:09.513Z,8.25
2023-04-09T08:54:05.467Z,8.22
2023-04-09T08:55:00.746Z,8.29
2023-04-09T08:55:56.163Z,8.37
2023-04-09T08:56:52.430Z,8.49
2023-04-09T08:57:47.870Z,8.63
2023-04-09T08:58:43.730Z,8.78
2023-04-09T08:59:39.255Z,8.94
2023-04-09T09:00:34.878Z,8.93
2023-04-09T09:01:30.583Z,8.80
2023-04-09T09:02:26.013Z,8.65
2023-04-09T09:03:21.851Z,8.53
2023-04-09T09:04:17.101Z,8.55
2023-04-09T09:05:12.430Z,8.84
2023-04-09T09:06:08.051Z,9.35
2023-04-09T09:07:03.549Z,9.63
2023-04-09T09:07:59.140Z,9.75
2023-04-09T09:08:58.850Z,9.78
2023-04-09T09:09:54.217Z,9.95
2023-04-09T09:10:49.458Z,10.31
2023-04-09T09:11:45.141Z,10.70
2023-04-09T09:12:40.579Z,10.82
2023-04-09T09:13:35.957Z,10.59
2023-04-09T09:14:32.500Z,10.25
2023-04-09T09:15:27.766Z,9.97
2023-04-09T09:16:23.560Z,9.84
2023-04-09T09:17:19.049Z,9.74
2023-04-09T09:18:14.511Z,9.80
2023-04-09T09:19:10.267Z,10.02
2023-04-09T09:20:05.686Z,10.04
2023-04-09T09:21:01.370Z,10.18
2023-04-09T09:21:56.776Z,10.25
2023-04-09T09:22:54.576Z,10.01
2023-04-09T09:23:47.746Z,9.93
2023-04-09T09:24:43.300Z,10.00
2023-04-09T09:25:39.271Z,10.31
2023-04-09T09:26:34.676Z,10.41
2023-04-09T09:27:30.116Z,10.34
2023-04-09T09:28:25.812Z,10.27
2023-04-09T09:29:21.588Z,10.21
2023-04-09T09:30:17.081Z,10.24
2023-04-09T09:31:12.415Z,10.32
2023-04-09T09:32:07.757Z,10.70
2023-04-09T09:33:03.478Z,11.00
2023-04-09T09:33:59.008Z,11.10
2023-04-09T09:34:54.306Z,11.09
2023-04-09T09:35:50.833Z,11.25
2023-04-09T09:36:46.190Z,10.91
2023-04-09T09:37:42.184Z,10.61
2023-04-09T09:38:37.614Z,10.57
2023-04-09T09:39:33.079Z,10.50
2023-04-09T09:40:28.915Z,10.43
2023-04-09T09:41:24.365Z,10.20
2023-04-09T09:42:20.334Z,10.17
2023-04-09T09:43:15.721Z,10.65
2023-04-09T09:44:11.191Z,11.06
2023-04-09T09:45:06.696Z,11.31
2023-04-09T09:46:02.229Z,11.70
2023-04-09T09:46:57.612Z,12.04
2023-04-09T09:47:53.982Z,12.41
2023-04-09T09:48:49.658Z,12.72
2023-04-09T09:49:45.566Z,13.02
2023-04-09T09:50:40.954Z,13.31
2023-04-09T09:51:36.421Z,13.61
2023-04-09T09:52:32.088Z,13.72
2023-04-09T09:53:27.543Z,13.52
2023-04-09T09:54:23.618Z,12.98
2023-04-09T09:55:18.766Z,12.79
2023-04-09T09:56:14.283Z,12.69
2023-04-09T09:57:09.893Z,12.34
2023-04-09T09:58:05.459Z,11.97
2023-04-09T09:59:00.982Z,11.10
2023-04-09T09:59:57.097Z,10.63
2023-04-09T10:00:52.655Z,10.58
2023-04-09T10:01:48.631Z,10.89
2023-04-09T10:02:43.951Z,11.11
2023-04-09T10:03:39.301Z,11.33
2023-04-09T10:04:35.306Z,11.47
2023-04-09T10:05:30.560Z,11.90
2023-04-09T10:06:26.240Z,12.28
2023-04-09T10:07:21.662Z,12.40
2023-04-09T10:08:17.265Z,12.33
2023-04-09T10:09:13.387Z,11.99
2023-04-09T10:10:08.433Z,11.77
2023-04-09T10:11:03.981Z,11.68
2023-04-09T10:12:00.071Z,11.66
2023-04-09T10:12:55.459Z,11.68
2023-04-09T10:13:50.956Z,11.83
2023-04-09T10:14:47.324Z,12.25
2023-04-09T10:15:42.726Z,12.04
2023-04-09T10:16:38.581Z,11.90
2023-04-09T10:17:34.112Z,11.64
2023-04-09T10:18:29.816Z,11.34
2023-04-09T10:19:25.644Z,11.08
2023-04-09T10:20:20.879Z,10.93
2023-04-09T10:21:16.641Z,11.05
2023-04-09T10:23:36.429Z,11.13
2023-04-09T10:24:31.820Z,11.35
2023-04-09T10:25:27.156Z,11.38
2023-04-09T10:26:22.554Z,11.36
2023-04-09T10:27:18.059Z,11.68
2023-04-09T10:28:13.446Z,12.14
2023-04-09T10:29:08.876Z,12.34
2023-04-09T10:30:04.485Z,12.20
2023-04-09T10:30:59.809Z,11.90
2023-04-09T10:31:55.200Z,12.03
2023-04-09T10:32:50.651Z,12.27
2023-04-09T10:33:45.992Z,12.49
2023-04-09T10:34:41.337Z,12.76
2023-04-09T10:35:36.708Z,13.08
2023-04-09T10:36:32.152Z,13.38
2023-04-09T10:37:27.552Z,13.59
2023-04-09T10:38:22.907Z,13.73
2023-04-09T10:39:18.327Z,13.76
2023-04-09T10:40:13.891Z,13.94
2023-04-09T10:41:09.115Z,14.11
2023-04-09T10:42:04.586Z,13.97
2023-04-09T10:42:59.966Z,13.97
2023-04-09T10:43:55.359Z,14.21
2023-04-09T10:44:50.785Z,14.37
2023-04-09T10:45:46.063Z,14.50
2023-04-09T10:46:41.577Z,14.74
2023-04-09T10:47:37.064Z,14.68
2023-04-09T10:48:32.381Z,14.32
2023-04-09T10:49:27.787Z,13.53
2023-04-09T10:50:24.013Z,13.12
2023-04-09T10:51:18.640Z,13.22
2023-04-09T10:52:14.137Z,13.29
2023-04-09T10:53:09.639Z,12.88
2023-04-09T10:54:04.883Z,12.77
2023-04-09T10:55:00.360Z,12.89
2023-04-09T10:55:55.729Z,12.83
2023-04-09T10:56:51.028Z,12.72
2023-04-09T10:57:46.404Z,12.83
2023-04-09T10:58:41.943Z,13.21
2023-04-09T10:59:37.440Z,13.40
2023-04-09T11:00:32.827Z,13.28
2023-04-09T11:01:28.254Z,13.12
2023-04-09T11:02:23.927Z,13.09
2023-04-09T11:03:19.428Z,13.34
2023-04-09T11:04:14.768Z,13.71
2023-04-09T11:05:10.128Z,13.91
2023-04-09T11:06:05.521Z,13.83
2023-04-09T11:07:00.858Z,13.75
2023-04-09T11:07:56.131Z,13.35
2023-04-09T11:08:51.752Z,12.87
2023-04-09T11:09:47.096Z,12.36
2023-04-09T11:10:42.278Z,11.94
2023-04-09T11:11:37.612Z,11.82
2023-04-09T11:12:32.965Z,11.74
2023-04-09T11:13:28.641Z,11.80
2023-04-09T11:14:24.304Z,11.84
2023-04-09T11:15:19.421Z,11.75
2023-04-09T11:16:24.816Z,11.69
2023-04-09T11:17:11.386Z,11.76
2023-04-09T11:18:05.712Z,11.97
2023-04-09T11:19:01.125Z,12.30
2023-04-09T11:19:56.698Z,12.74
2023-04-09T11:20:52.030Z,13.18
2023-04-09T11:21:47.419Z,13.47
2023-04-09T11:22:42.729Z,13.70
2023-04-09T11:23:38.108Z,14.14
2023-04-09T11:24:33.686Z,14.31
2023-04-09T11:25:29.051Z,14.20
2023-04-09T11:26:24.593Z,13.72
2023-04-09T11:27:19.841Z,13.41
2023-04-09T11:28:15.209Z,12.87
2023-04-09T11:29:10.687Z,12.63
2023-04-09T11:30:06.404Z,12.21
2023-04-09T11:31:01.608Z,11.84
2023-04-09T11:31:57.296Z,11.71
2023-04-09T11:32:52.711Z,11.87
2023-04-09T11:33:48.127Z,12.21
2023-04-09T11:34:43.511Z,12.74
2023-04-09T11:35:39.117Z,13.24
2023-04-09T11:36:34.200Z,13.34
2023-04-09T11:37:29.649Z,13.61
2023-04-09T11:38:25.032Z,13.82
2023-04-09T11:39:20.460Z,13.81
2023-04-09T11:40:16.052Z,13.92
2023-04-09T11:41:11.456Z,14.19
2023-04-09T11:42:06.708Z,14.20
2023-04-09T11:43:02.174Z,14.26
2023-04-09T11:43:57.558Z,14.24
2023-04-09T11:44:52.972Z,14.05
2023-04-09T11:45:48.890Z,13.73
2023-04-09T11:46:43.648Z,13.54
2023-04-09T11:47:39.264Z,13.51
2023-04-09T11:48:34.465Z,13.37
2023-04-09T11:49:29.880Z,13.17
2023-04-09T11:50:25.315Z,13.38
2023-04-09T11:51:20.937Z,13.47
2023-04-09T11:52:16.732Z,13.59
2023-04-09T11:53:12.089Z,13.62
2023-04-09T11:54:07.618Z,13.60
2023-04-09T11:55:02.897Z,13.04
2023-04-09T11:55:58.456Z,12.71
2023-04-09T11:56:53.755Z,12.56
2023-04-09T11:57:49.256Z,12.57
2023-04-09T11:58:44.573Z,12.50
2023-04-09T11:59:40.060Z,12.31
2023-04-09T12:00:35.825Z,12.04
2023-04-09T12:01:31.155Z,11.96
2023-04-09T12:02:26.459Z,12.16
2023-04-09T12:03:22.060Z,12.47
2023-04-09T12:04:17.492Z,12.67
2023-04-09T12:05:13.117Z,12.88
2023-04-09T12:06:08.290Z,13.20
2023-04-09T12:07:03.713Z,13.51
2023-04-09T12:07:59.194Z,13.82
2023-04-09T12:08:54.601Z,14.11
2023-04-09T12:09:49.855Z,14.31
2023-04-09T12:10:45.459Z,14.54
2023-04-09T12:11:40.803Z,14.82
2023-04-09T12:12:36.240Z,14.91
2023-04-09T12:13:31.860Z,15.06
2023-04-09T12:14:27.145Z,14.80